Hyalite Weather Station

This weather station provides temperature, wind speed, gust or max wind speed, and wind direction at 9982ft near the summit of Flanders Mountain. This data can be used with temperature and precipitation data from the Shower Falls SNOTEL site. If the data has not been updated recently you can view it directly on datagarrison.com

Elevation
9982ft
Jump to table bottom
Date Time Temperature
deg F
RH, % Wind Speed Wind Gust Wind Direction
03/31/22 16:00 42.4 99 0 0 NW - 308
03/31/22 15:00 33.2 98 0 2 NW - 315
03/31/22 14:00 32.2 98 0 1 NW - 297
03/31/22 13:00 31.3 98 0 1 W - 257
03/31/22 12:00 22.4 94 5 11 W - 259
03/31/22 11:00 13.7 92 6 14 W - 284
03/31/22 10:00 14.3 92 6 12 W - 280
03/31/22 09:00 13.3 92 7 12 NW - 297
03/31/22 08:00 12.9 92 7 11 W - 287
03/31/22 07:00 11.5 92 8 14 NW - 322
03/31/22 06:00 13.5 92 10 16 NW - 328
03/31/22 05:00 14.9 93 7 14 NW - 321
03/31/22 04:00 17.4 93 4 8 W - 277
03/31/22 03:00 17.1 93 5 11 NW - 302
03/31/22 02:00 17.7 94 7 13 NW - 330
03/31/22 01:00 19.2 94 7 13 NW - 315
03/31/22 00:00 20.0 94 6 11 W - 263
03/30/22 23:00 21.5 95 7 11 W - 267
03/30/22 22:00 21.7 95 9 14 W - 274
03/30/22 21:00 22.7 94 9 18 W - 271
03/30/22 20:00 27.2 69 10 21 W - 263
03/30/22 19:00 30.8 45 13 22 W - 253
03/30/22 18:00 32.8 45 12 21 W - 248
03/30/22 17:00 33.4 49 13 18 SW - 246
03/30/22 16:00 32.8 79 10 14 W - 250
03/30/22 15:00 33.0 51 10 15 SW - 246
03/30/22 14:00 32.2 37 10 15 SW - 242
03/30/22 13:00 30.3 60 7 12 SW - 242
03/30/22 12:00 30.0 47 4 7 SW - 239
03/30/22 11:00 30.8 34 3 8 N - -8
03/30/22 10:00 29.7 29 9 16 NE - 41
03/30/22 09:00 26.3 28 17 24 NE - 24
03/30/22 08:00 25.5 27 20 24 N - 22
03/30/22 07:00 22.7 32 15 23 N - -12
03/30/22 06:00 13.4 85 9 18 W - 290
03/30/22 05:00 14.9 93 10 13 W - 285
03/30/22 04:00 14.4 93 10 16 W - 281
03/30/22 03:00 14.0 93 10 15 W - 276
03/30/22 02:00 13.5 93 10 16 NW - 294
03/30/22 01:00 12.0 92 10 19 NW - 305
03/30/22 00:00 12.8 92 10 22 NW - 308
03/29/22 23:00 12.1 92 8 16 W - 277
03/29/22 22:00 12.6 92 7 13 W - 277
03/29/22 21:00 12.3 92 7 15 W - 284
03/29/22 20:00 13.5 93 8 20 W - 291
03/29/22 19:00 14.0 93 7 14 W - 287
03/29/22 18:00 15.0 93 8 14 W - 277
03/29/22 17:00 16.8 94 6 12 W - 278
03/29/22 16:00 17.1 94 6 11 W - 277
03/29/22 15:00 17.5 94 6 10 W - 278